Fay, OK (73646)

12:33 AM CDT on August 24, 2016 (GMT -0500)
East Hughes and 5th Street | | Change Station

Elev 1788 ft 35.75 °N, 98.74 °W | Updated 2 seconds ago

Clear
Clear
77.2 °F
Feels Like 79 °F
N
5.1
Wind Variable Wind from South
Gusts 7.4 mph

Today
High -- | Low -- °F
--% Chance of Precip.
Yesterday
High -- | Low -- °F
Precip. -- in
Pressure 29.98 in
Visibility 10.0 miles
Clouds Clear
Heat Index 79 °F
Dew Point 73 °F
Humidity 87%
Rainfall 0.00 in
Snow Depth Not available.
7:00 AM 8:12 PM
Waning Gibbous, 61% visible
METAR KJWG 240515Z AUTO 17013G22KT 10SM CLR 28/22 A2998 RMK AO2 T02810218
Pressure 29.98 in
Visibility 10.0 miles
Clouds Clear
Heat Index 79 °F
Dew Point 73 °F
Humidity 87%
Rainfall 0.00 in
Snow Depth Not available.
7:00 AM 8:12 PM
Waning Gibbous, 61% visible
METAR KJWG 240515Z AUTO 17013G22KT 10SM CLR 28/22 A2998 RMK AO2 T02810218

10-Day Weather Forecast

Almanac

Astronomy

Aug. 24, 2016 Rise Set
Actual Time
Civil Twilight
Nautical Twilight
Astronomical Twilight
Moon
Length of Visible Light
Length of Day
Tomorrow will be .
, % of the Moon is Illuminated

Today's Extremes

State Highs State Lows

Community

WunderPhotos

Upload Photos

1,934,554 photos uploaded!

WunderBlog® & News

Nearby

Air Quality

  Air Quality AQ Index Pollutant
Not available.

Snow Depth

Station Depth Elevation

Earthquake Activity

City Distance Mag. Time & Date
Minimum magnitude displayed is 2.5.

Coastal Water Temperatures

Place Temperature

Stations

Nearby Weather Stations

Station Location Temp. Windchill Dew Point Humidity Wind Precip. Elev Updated Type
                   

Watches & Warnings

There are currently no watches in effect.